Time;durP1;ratioP1;P1;durP2;ratioP2;P2;SDS_P1;SDS_P2;PMS_P1;PMS_P2;Temp;Humidity;BMP_temperature;BMP_pressure;BME280_temperature;BME280_humidity;BME280_pressure;Samples;Min_cycle;Max_cycle;Signal;HPM_P1;HPM_P2
2022/12/22 03:27:27;;;;;;;8.53;2.90;;;12.80;73.40;;;;;;4901403;29;20905;-87
2022/12/22 03:29:53;;;;;;;2.40;2.20;;;13.00;72.90;;;;;;4890795;29;20463;-86
2022/12/22 03:32:20;;;;;;;4.33;2.00;;;13.10;73.00;;;;;;4897476;29;20592;-87
2022/12/22 03:34:48;;;;;;;2.23;2.03;;;13.00;72.50;;;;;;4915821;29;20483;-86
2022/12/22 03:37:15;;;;;;;1.90;1.73;;;13.00;73.40;;;;;;4898887;29;20461;-86
2022/12/22 03:39:42;;;;;;;2.67;2.30;;;13.00;73.10;;;;;;4913050;29;20561;-87
2022/12/22 03:47:40;;;;;;;2.33;1.63;;;12.90;73.20;;;;;;4908154;29;20460;-87
2022/12/22 03:50:09;;;;;;;2.83;2.20;;;12.90;74.10;;;;;;4906206;29;20511;-86
2022/12/22 03:52:37;;;;;;;4.90;2.10;;;13.10;73.50;;;;;;4876052;29;20455;-87
2022/12/22 03:55:04;;;;;;;1.77;1.30;;;13.20;72.70;;;;;;4884989;29;20484;-87
2022/12/22 03:57:31;;;;;;;2.00;1.80;;;13.10;72.70;;;;;;4907571;29;20475;-87
2022/12/22 03:59:58;;;;;;;1.60;1.50;;;13.00;73.40;;;;;;4898643;29;20452;-88
2022/12/22 04:02:25;;;;;;;1.70;1.50;;;13.00;73.50;;;;;;4898205;29;20470;-87
2022/12/22 04:04:52;;;;;;;1.73;1.50;;;13.00;73.30;;;;;;4915622;29;20468;-87
2022/12/22 04:07:45;;;;;;;2.03;1.70;;;13.00;73.40;;;;;;4911677;29;20440;-87
2022/12/22 04:12:57;;;;;;;2.37;1.43;;;13.40;71.50;;;;;;4871401;29;20533;-86
2022/12/22 04:15:25;;;;;;;3.27;2.50;;;13.20;72.40;;;;;;4927313;29;20486;-87
2022/12/22 04:17:52;;;;;;;2.43;1.40;;;13.20;72.60;;;;;;4902657;29;20464;-87
2022/12/22 04:20:21;;;;;;;2.43;1.70;;;13.10;72.60;;;;;;4929392;29;20471;-87
2022/12/22 04:22:49;;;;;;;1.97;1.60;;;13.20;72.80;;;;;;4922444;29;20481;-87
2022/12/22 04:25:16;;;;;;;1.23;1.10;;;13.20;73.00;;;;;;4915571;29;20468;-87
2022/12/22 04:27:43;;;;;;;5.23;1.63;;;13.30;72.20;;;;;;4900158;29;20647;-87
2022/12/22 04:30:11;;;;;;;2.83;1.70;;;13.30;72.60;;;;;;4890237;29;20462;-87
2022/12/22 04:32:38;;;;;;;5.30;1.80;;;13.40;72.10;;;;;;4875351;29;20456;-87
2022/12/22 04:35:07;;;;;;;1.90;1.80;;;13.40;72.10;;;;;;4883513;29;20490;-87
2022/12/22 04:37:34;;;;;;;4.00;2.37;;;13.20;72.20;;;;;;4915607;29;20470;-86
2022/12/22 04:40:02;;;;;;;2.30;2.10;;;13.30;72.40;;;;;;4882954;29;20459;-87
2022/12/22 04:42:29;;;;;;;4.53;2.00;;;13.30;72.20;;;;;;4886294;29;20451;-86
2022/12/22 04:44:56;;;;;;;4.07;1.70;;;13.30;72.40;;;;;;4911318;29;20625;-87
2022/12/22 04:47:23;;;;;;;3.13;2.00;;;13.20;72.30;;;;;;4898840;29;20467;-87
2022/12/22 04:49:50;;;;;;;4.80;2.00;;;13.20;72.40;;;;;;4917195;29;20466;-87
2022/12/22 04:52:17;;;;;;;2.77;2.00;;;13.30;72.60;;;;;;4913436;29;20954;-87
2022/12/22 04:54:44;;;;;;;2.27;1.83;;;13.30;72.60;;;;;;4915994;29;20523;-87
2022/12/22 04:57:12;;;;;;;5.00;3.00;;;13.20;72.80;;;;;;4893919;29;20472;-87
2022/12/22 04:59:39;;;;;;;4.77;3.53;;;13.30;72.90;;;;;;4918856;29;20590;-87
2022/12/22 05:02:06;;;;;;;7.17;5.53;;;13.40;72.30;;;;;;4899639;29;20472;-87
2022/12/22 05:04:33;;;;;;;2.43;1.97;;;13.60;71.40;;;;;;4910200;29;20482;-84
2022/12/22 05:06:59;;;;;;;22.63;13.60;;;13.50;71.90;;;;;;4878062;29;20840;-86
2022/12/22 05:09:26;;;;;;;2.80;2.60;;;13.60;71.30;;;;;;4886802;29;20871;-86
2022/12/22 05:11:53;;;;;;;5.37;2.20;;;13.50;71.70;;;;;;4911619;29;20964;-86
2022/12/22 05:14:21;;;;;;;3.23;2.93;;;13.20;72.90;;;;;;4864851;29;20543;-85
2022/12/22 05:16:48;;;;;;;3.40;2.40;;;13.20;73.00;;;;;;4898193;29;20467;-86
2022/12/22 05:19:16;;;;;;;2.67;2.47;;;13.40;73.00;;;;;;4885459;29;20920;-86
2022/12/22 05:21:42;;;;;;;4.80;4.00;;;13.30;72.40;;;;;;4891984;29;20488;-85
2022/12/22 05:24:09;;;;;;;3.00;2.00;;;13.40;72.60;;;;;;4883865;29;20551;-86
2022/12/22 05:26:36;;;;;;;1.63;1.53;;;13.50;71.90;;;;;;4888080;29;21033;-86
2022/12/22 05:29:03;;;;;;;2.33;1.50;;;13.80;71.00;;;;;;4907015;29;20450;-88
2022/12/22 05:31:31;;;;;;;2.47;1.40;;;13.50;71.50;;;;;;4896057;29;20459;-86
2022/12/22 05:33:58;;;;;;;1.53;1.40;;;13.60;71.90;;;;;;4890423;29;20776;-88
2022/12/22 05:36:25;;;;;;;3.20;1.50;;;13.30;72.80;;;;;;4910503;29;20456;-87
2022/12/22 05:38:52;;;;;;;2.87;2.10;;;13.20;73.40;;;;;;4903238;29;20868;-84
2022/12/22 05:41:19;;;;;;;3.00;1.60;;;13.20;73.60;;;;;;4868422;29;20831;-86
2022/12/22 05:43:46;;;;;;;3.33;1.70;;;13.40;73.40;;;;;;4884730;29;20519;-85
2022/12/22 05:46:13;;;;;;;2.27;1.67;;;13.30;73.80;;;;;;4904354;29;20462;-86
2022/12/22 05:48:41;;;;;;;2.83;1.77;;;13.40;73.10;;;;;;4897555;29;20458;-87
2022/12/22 05:51:08;;;;;;;3.30;1.30;;;13.20;73.80;;;;;;4896382;29;20474;-85
2022/12/22 05:53:36;;;;;;;1.30;1.20;;;13.20;73.60;;;;;;4915843;29;20547;-85
2022/12/22 05:56:03;;;;;;;2.80;2.13;;;12.80;74.60;;;;;;4912501;29;20452;-87
2022/12/22 05:58:30;;;;;;;3.20;2.20;;;12.80;76.00;;;;;;4909378;29;20877;-86
2022/12/22 06:00:58;;;;;;;2.10;1.90;;;12.90;74.30;;;;;;4920218;29;20471;-85
2022/12/22 06:03:24;;;;;;;2.50;1.93;;;12.90;74.90;;;;;;4905730;29;20463;-86
2022/12/22 06:05:53;;;;;;;4.83;1.90;;;12.30;76.50;;;;;;4914627;29;20475;-86
2022/12/22 06:08:20;;;;;;;2.40;1.57;;;12.30;77.30;;;;;;4885271;29;20762;-86
2022/12/22 06:10:47;;;;;;;1.70;1.60;;;12.80;76.10;;;;;;4896979;29;20459;-86
2022/12/22 06:13:14;;;;;;;4.43;1.60;;;12.80;74.90;;;;;;4874796;29;20971;-85
2022/12/22 06:15:41;;;;;;;1.83;1.60;;;12.80;75.30;;;;;;4898240;29;20834;-85
2022/12/22 06:18:08;;;;;;;1.50;1.40;;;12.90;75.20;;;;;;4900226;29;20592;-85
2022/12/22 06:20:35;;;;;;;4.40;1.50;;;13.00;75.00;;;;;;4927130;29;20450;-86
2022/12/22 06:23:03;;;;;;;2.50;1.30;;;13.20;73.70;;;;;;4897289;29;21027;-87
2022/12/22 06:25:30;;;;;;;1.33;1.23;;;13.20;73.80;;;;;;4899260;29;20956;-86
2022/12/22 06:27:57;;;;;;;1.57;1.00;;;13.20;74.20;;;;;;4887720;29;20460;-86
2022/12/22 06:30:24;;;;;;;1.50;1.30;;;13.30;73.30;;;;;;4897789;29;20479;-87
2022/12/22 06:32:51;;;;;;;1.10;1.00;;;13.30;73.50;;;;;;4872322;29;20451;-87
2022/12/22 06:35:18;;;;;;;2.60;1.63;;;13.40;73.20;;;;;;4910386;29;20491;-87
2022/12/22 06:37:45;;;;;;;1.60;1.50;;;13.30;73.30;;;;;;4895326;29;20455;-88
2022/12/22 06:40:14;;;;;;;1.30;1.20;;;13.00;75.00;;;;;;4920107;29;20467;-85
2022/12/22 06:45:25;;;;;;;3.13;1.10;;;13.10;74.60;;;;;;4918206;29;20566;-87
2022/12/22 06:47:52;;;;;;;1.90;1.80;;;12.80;75.40;;;;;;4919544;29;20467;-87
2022/12/22 06:50:19;;;;;;;1.60;1.50;;;13.00;75.80;;;;;;4898955;29;20447;-85
2022/12/22 06:52:46;;;;;;;2.03;1.93;;;13.00;75.60;;;;;;4899349;29;20664;-86
2022/12/22 06:55:14;;;;;;;3.40;1.70;;;13.10;75.00;;;;;;4927394;29;20474;-88
2022/12/22 06:57:41;;;;;;;3.77;3.03;;;13.20;74.60;;;;;;4912570;29;21035;-86
2022/12/22 07:00:09;;;;;;;2.00;1.40;;;13.10;74.90;;;;;;4894807;29;20887;-86
2022/12/22 07:02:36;;;;;;;3.20;2.13;;;13.30;74.20;;;;;;4901106;29;20495;-86
2022/12/22 07:05:03;;;;;;;1.70;1.60;;;13.40;74.20;;;;;;4911667;29;20478;-86
2022/12/22 07:07:30;;;;;;;2.53;2.30;;;13.40;73.40;;;;;;4912708;29;20452;-87
2022/12/22 07:09:57;;;;;;;6.33;2.10;;;13.50;73.70;;;;;;4903056;29;20471;-85
2022/12/22 07:12:25;;;;;;;6.60;1.70;;;13.60;73.40;;;;;;4910934;29;20498;-86
2022/12/22 07:14:52;;;;;;;2.20;2.10;;;13.60;73.10;;;;;;4913335;29;20503;-86
2022/12/22 07:17:19;;;;;;;2.40;2.20;;;13.40;73.60;;;;;;4863695;29;20471;-86
2022/12/22 07:19:46;;;;;;;4.17;1.90;;;13.60;73.40;;;;;;4872977;29;20463;-87
2022/12/22 07:22:13;;;;;;;4.83;2.13;;;13.80;72.70;;;;;;4879322;29;21068;-86
2022/12/22 07:24:40;;;;;;;2.30;2.10;;;13.50;73.70;;;;;;4894964;29;20479;-88
2022/12/22 07:27:07;;;;;;;3.60;2.13;;;13.50;74.30;;;;;;4908012;29;20513;-87
2022/12/22 07:29:35;;;;;;;3.23;2.10;;;13.60;74.20;;;;;;4901070;29;20871;-86
2022/12/22 07:32:02;;;;;;;4.87;2.37;;;13.60;73.70;;;;;;4921076;28;20451;-86
2022/12/22 07:34:30;;;;;;;9.60;6.10;;;13.70;73.80;;;;;;4892907;29;20483;-86
2022/12/22 07:36:57;;;;;;;2.37;2.13;;;13.60;73.60;;;;;;4891379;29;20981;-85
2022/12/22 07:39:23;;;;;;;2.67;2.47;;;13.60;74.50;;;;;;4893909;29;20455;-86
2022/12/22 07:44:36;;;;;;;6.40;1.63;;;13.50;74.40;;;;;;4902206;29;20478;-86
2022/12/22 07:47:03;;;;;;;3.40;2.43;;;13.60;74.10;;;;;;4912779;29;21056;-87
2022/12/22 07:52:15;;;;;;;3.40;1.70;;;13.60;73.30;;;;;;4925351;29;20519;-86
2022/12/22 07:54:42;;;;;;;2.10;1.80;;;13.60;73.70;;;;;;4896538;29;20494;-86
2022/12/22 07:57:09;;;;;;;4.90;1.80;;;13.60;73.40;;;;;;4926704;28;20467;-86
2022/12/22 07:59:37;;;;;;;2.00;1.80;;;13.60;73.30;;;;;;4871241;29;20468;-85
2022/12/22 08:02:04;;;;;;;5.97;2.30;;;13.80;72.80;;;;;;4871831;29;20471;-86
2022/12/22 08:04:31;;;;;;;8.53;5.10;;;13.70;72.70;;;;;;4880398;29;20686;-85
2022/12/22 08:06:58;;;;;;;9.10;2.87;;;13.90;72.80;;;;;;4901599;29;21052;-84
2022/12/22 08:09:25;;;;;;;4.10;1.73;;;13.80;72.80;;;;;;4910915;29;20469;-85
2022/12/22 08:11:52;;;;;;;1.80;1.60;;;13.70;73.20;;;;;;4897435;29;20454;-84
2022/12/22 08:14:19;;;;;;;4.00;1.70;;;13.70;72.70;;;;;;4884335;29;20478;-85
2022/12/22 08:16:47;;;;;;;3.90;2.00;;;13.80;73.40;;;;;;4881197;29;20450;-85
2022/12/22 08:19:14;;;;;;;3.97;1.90;;;13.70;72.70;;;;;;4910901;29;21135;-86
2022/12/22 08:21:41;;;;;;;8.87;3.00;;;13.40;74.40;;;;;;4899737;29;20974;-85
2022/12/22 08:24:08;;;;;;;4.90;2.10;;;13.40;74.50;;;;;;4898021;29;20479;-86
2022/12/22 08:26:40;;;;;;;3.80;2.10;;;13.50;74.40;;;;;;4889404;29;20569;-86
2022/12/22 08:29:11;;;;;;;10.30;2.87;;;13.50;74.40;;;;;;4927225;29;20446;-86
2022/12/22 08:31:39;;;;;;;2.10;1.20;;;13.50;74.10;;;;;;4925185;29;21603;-85
2022/12/22 08:34:10;;;;;;;5.80;3.13;;;13.50;74.00;;;;;;4880355;29;20475;-86
2022/12/22 08:36:41;;;;;;;6.20;2.50;;;13.60;73.10;;;;;;4898433;29;20550;-85
2022/12/22 08:39:09;;;;;;;3.10;2.70;;;13.70;73.50;;;;;;4899312;29;20457;-86
2022/12/22 08:41:52;;;;;;;4.73;2.40;;;13.70;72.80;;;;;;4894897;29;20621;-86
2022/12/22 08:44:21;;;;;;;6.20;1.93;;;13.90;73.00;;;;;;4925704;29;20585;-85
2022/12/22 08:46:49;;;;;;;4.40;2.27;;;13.80;71.90;;;;;;4901497;29;20455;-86
2022/12/22 08:49:17;;;;;;;9.10;3.90;;;13.80;72.10;;;;;;4927075;28;20874;-86
2022/12/22 08:51:45;;;;;;;10.20;2.40;;;13.80;72.80;;;;;;4900049;29;20453;-86
2022/12/22 08:54:12;;;;;;;5.13;2.73;;;13.80;72.70;;;;;;4914014;29;20490;-86
2022/12/22 08:56:40;;;;;;;16.23;4.83;;;14.00;72.00;;;;;;4926310;28;20459;-86
2022/12/22 08:59:08;;;;;;;9.00;3.33;;;14.10;71.80;;;;;;4917256;29;20448;-87
2022/12/22 09:01:37;;;;;;;5.57;2.73;;;14.20;70.80;;;;;;4868344;29;20956;-86
2022/12/22 09:04:05;;;;;;;8.73;2.80;;;14.10;71.00;;;;;;4903266;29;20475;-85
2022/12/22 09:06:33;;;;;;;6.10;4.10;;;13.90;71.70;;;;;;4919169;29;20544;-86
2022/12/22 09:09:03;;;;;;;4.73;2.50;;;14.20;71.40;;;;;;4866044;29;20466;-85
2022/12/22 09:11:30;;;;;;;3.13;2.10;;;14.40;70.80;;;;;;4901755;29;20911;-85
2022/12/22 09:13:59;;;;;;;4.60;2.00;;;14.20;70.70;;;;;;4911950;29;20500;-87
2022/12/22 09:16:28;;;;;;;7.30;5.13;;;14.20;71.10;;;;;;4894685;29;20462;-85
2022/12/22 09:18:55;;;;;;;8.63;2.40;;;14.20;70.00;;;;;;4895936;29;20523;-86
2022/12/22 09:21:22;;;;;;;5.20;2.00;;;14.30;70.40;;;;;;4924235;28;20495;-85
2022/12/22 09:23:51;;;;;;;3.60;1.73;;;14.30;69.70;;;;;;4870800;29;20490;-87
2022/12/22 09:26:20;;;;;;;7.90;2.97;;;14.30;69.80;;;;;;4912029;29;20464;-86
2022/12/22 09:28:48;;;;;;;4.37;1.50;;;14.00;70.10;;;;;;4924251;28;21343;-86
2022/12/22 09:31:15;;;;;;;5.27;1.30;;;14.10;70.20;;;;;;4908703;29;20478;-86
2022/12/22 09:33:42;;;;;;;5.40;2.03;;;13.90;70.00;;;;;;4907328;29;20831;-85
2022/12/22 09:36:11;;;;;;;2.80;1.83;;;14.10;70.80;;;;;;4906723;29;20459;-86
2022/12/22 09:38:39;;;;;;;6.73;2.00;;;14.30;69.30;;;;;;4894142;29;20475;-86
2022/12/22 09:41:09;;;;;;;10.60;2.30;;;14.10;70.70;;;;;;4909050;29;20464;-85
2022/12/22 09:43:37;;;;;;;4.07;1.60;;;14.20;70.70;;;;;;4878575;29;20468;-85
2022/12/22 09:46:04;;;;;;;12.40;3.17;;;14.30;69.30;;;;;;4892329;29;20994;-85
2022/12/22 09:48:36;;;;;;;4.73;2.50;;;14.40;69.80;;;;;;4909049;29;20462;-85
2022/12/22 09:51:04;;;;;;;6.90;1.80;;;14.60;69.20;;;;;;4901624;29;20459;-85
2022/12/22 09:53:32;;;;;;;3.93;1.97;;;14.60;68.70;;;;;;4894977;29;20448;-85
2022/12/22 09:55:59;;;;;;;8.87;4.13;;;14.80;68.00;;;;;;4875136;29;20479;-85
2022/12/22 09:58:29;;;;;;;6.27;2.07;;;14.70;68.70;;;;;;4888705;29;20469;-85
2022/12/22 10:01:05;;;;;;;7.20;1.87;;;14.60;67.80;;;;;;4869693;29;20470;-86
2022/12/22 10:03:39;;;;;;;6.67;1.53;;;14.60;68.90;;;;;;4914761;29;20535;-85
2022/12/22 10:06:13;;;;;;;7.70;1.87;;;14.60;69.20;;;;;;4908676;29;20468;-85
2022/12/22 10:08:40;;;;;;;5.47;1.50;;;14.70;69.10;;;;;;4924095;28;20491;-86
2022/12/22 10:11:12;;;;;;;6.10;1.73;;;14.70;68.40;;;;;;4924499;29;20893;-85
2022/12/22 10:13:40;;;;;;;5.10;2.13;;;14.90;68.10;;;;;;4914613;29;20486;-86
2022/12/22 10:16:17;;;;;;;4.40;1.77;;;15.00;68.10;;;;;;4884203;29;20446;-87
2022/12/22 10:18:59;;;;;;;5.10;1.40;;;15.10;67.60;;;;;;4912748;29;20463;-86
2022/12/22 10:21:26;;;;;;;7.70;3.27;;;14.90;68.20;;;;;;4896406;29;20462;-86
2022/12/22 10:23:54;;;;;;;4.23;2.60;;;14.80;68.00;;;;;;4883644;29;20479;-86
2022/12/22 10:26:23;;;;;;;4.40;2.70;;;14.90;67.50;;;;;;4918357;29;20961;-86
2022/12/22 10:28:57;;;;;;;11.60;2.17;;;14.80;67.50;;;;;;4890372;29;20455;-87
2022/12/22 10:31:27;;;;;;;6.27;2.50;;;14.80;67.30;;;;;;4929190;28;20455;-86
2022/12/22 10:33:57;;;;;;;6.10;1.87;;;14.70;67.80;;;;;;4915955;29;20816;-86
2022/12/22 10:36:27;;;;;;;4.40;2.20;;;14.40;69.00;;;;;;4887169;29;20440;-86
2022/12/22 10:39:00;;;;;;;4.50;2.00;;;14.50;67.40;;;;;;4912323;29;20479;-86
2022/12/22 10:41:29;;;;;;;6.20;2.80;;;14.30;68.10;;;;;;4889974;29;20463;-87
2022/12/22 10:44:00;;;;;;;4.73;1.67;;;14.00;69.00;;;;;;4914811;29;21035;-87
2022/12/22 10:46:34;;;;;;;2.60;1.83;;;14.30;69.10;;;;;;4890763;29;20938;-86
2022/12/22 10:49:14;;;;;;;6.63;2.43;;;14.40;68.30;;;;;;4900265;29;20550;-85
2022/12/22 10:51:44;;;;;;;6.57;1.30;;;14.20;68.80;;;;;;4882519;29;20460;-87
2022/12/22 10:54:28;;;;;;;6.73;1.63;;;14.20;68.40;;;;;;4922315;29;20950;-88
2022/12/22 10:57:00;;;;;;;5.30;1.60;;;14.20;68.60;;;;;;4903556;29;20452;-88
2022/12/22 10:59:28;;;;;;;5.00;4.47;;;14.30;68.70;;;;;;4893174;29;20460;-88
2022/12/22 11:02:28;;;;;;;3.63;1.87;;;14.30;69.50;;;;;;4912611;29;20460;-87
2022/12/22 11:05:00;;;;;;;5.47;1.70;;;14.50;69.00;;;;;;4886205;29;20468;-87
2022/12/22 11:07:30;;;;;;;1.43;1.10;;;14.50;68.90;;;;;;4905645;29;20469;-87
2022/12/22 11:09:57;;;;;;;7.80;1.97;;;14.20;68.90;;;;;;4870715;29;20459;-87
2022/12/22 11:12:32;;;;;;;1.90;1.33;;;14.10;70.10;;;;;;4875127;29;20490;-85
2022/12/22 11:15:04;;;;;;;3.30;1.20;;;14.20;69.90;;;;;;4878936;29;20528;-86
2022/12/22 11:17:43;;;;;;;5.47;1.40;;;14.10;70.20;;;;;;4930575;29;20714;-87
2022/12/22 11:20:30;;;;;;;10.00;3.23;;;14.00;70.50;;;;;;4913876;29;20474;-87
2022/12/22 11:23:02;;;;;;;10.17;4.00;;;14.00;70.40;;;;;;4922956;29;20485;-86
2022/12/22 11:25:40;;;;;;;6.20;3.33;;;13.90;70.30;;;;;;4901125;29;20563;-87
2022/12/22 11:28:19;;;;;;;10.57;6.23;;;13.90;71.00;;;;;;4883198;29;20463;-87
2022/12/22 11:30:58;;;;;;;9.33;4.40;;;13.90;70.70;;;;;;4874070;29;20463;-86
2022/12/22 11:33:39;;;;;;;2.17;1.97;;;13.90;70.50;;;;;;4881597;29;20452;-85
2022/12/22 11:36:13;;;;;;;2.17;1.50;;;13.90;70.50;;;;;;4866852;29;20803;-86
2022/12/22 11:38:48;;;;;;;2.80;2.37;;;13.90;70.70;;;;;;4892615;29;21180;-87
2022/12/22 11:41:27;;;;;;;8.70;2.90;;;13.80;71.10;;;;;;4891217;29;20901;-85
2022/12/22 11:44:16;;;;;;;5.47;3.10;;;13.50;71.90;;;;;;4895051;29;20476;-86
2022/12/22 11:46:52;;;;;;;2.60;2.30;;;13.50;72.70;;;;;;4894706;29;20451;-85
2022/12/22 11:49:50;;;;;;;2.10;1.90;;;13.50;72.20;;;;;;4885433;29;20463;-86
2022/12/22 11:52:34;;;;;;;2.07;1.77;;;13.60;71.00;;;;;;4911143;29;20460;-86
2022/12/22 11:55:13;;;;;;;1.80;1.70;;;13.50;70.90;;;;;;4893065;29;20475;-84
2022/12/22 11:57:47;;;;;;;2.80;2.40;;;13.50;71.10;;;;;;4887071;29;20459;-86
2022/12/22 12:00:16;;;;;;;3.53;1.97;;;13.30;71.80;;;;;;4909573;29;20478;-86
2022/12/22 12:03:10;;;;;;;3.10;2.80;;;13.50;71.30;;;;;;4910830;29;20847;-86
2022/12/22 12:05:49;;;;;;;1.63;1.40;;;13.70;70.60;;;;;;4910830;29;20481;-86
2022/12/22 12:08:28;;;;;;;3.10;2.00;;;13.60;71.20;;;;;;4926328;29;20462;-84
2022/12/22 12:11:03;;;;;;;1.37;1.27;;;13.60;71.60;;;;;;4888026;29;20462;-85
2022/12/22 12:13:37;;;;;;;2.43;2.10;;;13.50;71.90;;;;;;4905639;29;20455;-86
2022/12/22 12:16:12;;;;;;;3.87;2.87;;;13.50;71.70;;;;;;4893273;29;20482;-86
2022/12/22 12:19:04;;;;;;;2.50;1.60;;;13.60;72.10;;;;;;4872037;29;20467;-86
2022/12/22 12:21:42;;;;;;;1.93;1.47;;;13.60;72.50;;;;;;4912199;29;20463;-85
2022/12/22 12:24:31;;;;;;;2.00;1.80;;;13.60;72.10;;;;;;4877965;29;21059;-86
2022/12/22 12:27:07;;;;;;;4.43;1.73;;;13.60;72.50;;;;;;4887206;29;20896;-86
2022/12/22 12:29:40;;;;;;;2.00;1.80;;;13.60;72.10;;;;;;4925164;28;20530;-86
2022/12/22 12:32:14;;;;;;;1.73;1.40;;;13.60;72.50;;;;;;4911569;29;20451;-86
2022/12/22 12:34:45;;;;;;;2.40;1.60;;;13.60;72.60;;;;;;4923459;28;20468;-86
2022/12/22 12:37:20;;;;;;;2.80;1.60;;;13.70;72.30;;;;;;4911028;29;20456;-85
2022/12/22 12:39:59;;;;;;;4.50;4.10;;;13.70;72.10;;;;;;4899221;29;20618;-86
2022/12/22 12:42:30;;;;;;;5.83;5.33;;;13.90;71.70;;;;;;4879580;29;21424;-86
2022/12/22 12:44:59;;;;;;;5.73;3.87;;;14.10;70.60;;;;;;4928059;29;20479;-85
2022/12/22 12:47:28;;;;;;;4.03;3.73;;;14.30;70.10;;;;;;4894642;29;20495;-87
2022/12/22 12:50:05;;;;;;;2.67;2.20;;;14.10;69.90;;;;;;4913389;29;20790;-87
2022/12/22 12:53:06;;;;;;;2.17;2.03;;;14.20;69.80;;;;;;4872426;29;20466;-87
2022/12/22 12:55:50;;;;;;;3.90;3.37;;;14.20;69.70;;;;;;4925654;28;21052;-87
2022/12/22 12:58:51;;;;;;;8.40;7.60;;;14.00;70.00;;;;;;4886489;29;20462;-87
2022/12/22 13:01:56;;;;;;;2.67;2.07;;;14.00;70.80;;;;;;4903656;29;20530;-88
2022/12/22 13:05:11;;;;;;;2.70;2.50;;;14.00;70.90;;;;;;4850259;29;20997;-86
2022/12/22 13:08:18;;;;;;;2.80;2.60;;;14.00;70.70;;;;;;4889833;29;20887;-86
2022/12/22 13:11:09;;;;;;;3.47;3.20;;;14.00;71.20;;;;;;4885497;29;20463;-87
2022/12/22 13:13:51;;;;;;;3.47;3.00;;;14.10;71.00;;;;;;4897092;29;20463;-85
2022/12/22 13:16:28;;;;;;;4.27;3.30;;;14.20;71.10;;;;;;4911612;29;20505;-87
2022/12/22 13:18:58;;;;;;;2.80;2.60;;;14.30;70.50;;;;;;4911321;29;20562;-86
2022/12/22 13:21:29;;;;;;;3.10;2.70;;;14.10;70.40;;;;;;4882444;29;20460;-85
2022/12/22 13:24:12;;;;;;;2.80;2.70;;;14.10;71.00;;;;;;4884442;29;20490;-87
2022/12/22 13:26:41;;;;;;;2.20;2.00;;;13.90;71.60;;;;;;4910371;29;20451;-86
2022/12/22 13:29:14;;;;;;;2.03;1.90;;;13.80;71.60;;;;;;4925566;29;20577;-85
2022/12/22 13:31:43;;;;;;;2.73;2.53;;;13.90;71.20;;;;;;4880019;29;20451;-83
2022/12/22 13:34:31;;;;;;;2.83;2.53;;;14.00;71.50;;;;;;4903642;29;21017;-84
2022/12/22 13:37:01;;;;;;;2.73;2.40;;;13.90;70.70;;;;;;4910918;29;20952;-87
2022/12/22 13:39:30;;;;;;;6.63;5.23;;;13.60;71.40;;;;;;4902919;29;20460;-89
2022/12/22 13:41:58;;;;;;;2.63;2.43;;;13.80;71.30;;;;;;4927522;29;20758;-87
2022/12/22 13:44:29;;;;;;;5.37;4.20;;;13.80;71.30;;;;;;4908009;29;20484;-85
2022/12/22 13:47:01;;;;;;;16.83;11.30;;;14.10;71.20;;;;;;4890238;29;20471;-86
2022/12/22 13:49:30;;;;;;;3.93;2.27;;;14.10;70.80;;;;;;4890720;29;20513;-85
2022/12/22 13:51:59;;;;;;;5.93;5.20;;;14.20;70.80;;;;;;4932134;29;20459;-88
2022/12/22 13:54:30;;;;;;;8.40;7.23;;;14.10;70.00;;;;;;4875614;29;20497;-86
2022/12/22 13:57:00;;;;;;;8.20;6.00;;;13.80;70.90;;;;;;4914996;29;20466;-89
2022/12/22 13:59:30;;;;;;;5.37;3.77;;;13.80;71.50;;;;;;4890129;29;20447;-86
2022/12/22 14:01:59;;;;;;;9.20;5.93;;;13.90;71.40;;;;;;4892264;29;20456;-87
2022/12/22 14:04:27;;;;;;;7.33;5.90;;;14.10;71.10;;;;;;4891330;29;20824;-85
2022/12/22 14:06:55;;;;;;;4.07;2.33;;;14.00;70.80;;;;;;4918177;29;20844;-85
2022/12/22 14:09:23;;;;;;;5.40;2.83;;;13.80;72.30;;;;;;4904407;29;20501;-89
2022/12/22 14:11:56;;;;;;;4.80;2.60;;;13.80;72.00;;;;;;4915976;29;20993;-84
2022/12/22 14:14:25;;;;;;;2.37;2.10;;;14.00;71.60;;;;;;4922635;29;20483;-85
2022/12/22 14:16:55;;;;;;;7.03;6.00;;;14.30;70.70;;;;;;4891075;29;20459;-88
2022/12/22 14:19:23;;;;;;;8.67;5.13;;;14.40;70.00;;;;;;4912651;29;21727;-86
2022/12/22 14:21:59;;;;;;;21.57;19.27;;;14.60;69.80;;;;;;4901503;29;20467;-84
2022/12/22 14:24:27;;;;;;;5.27;4.87;;;14.40;69.70;;;;;;4913189;29;21072;-82
2022/12/22 14:26:56;;;;;;;10.50;9.50;;;14.30;69.70;;;;;;4910653;29;20892;-86
2022/12/22 14:29:27;;;;;;;11.10;10.10;;;14.00;70.10;;;;;;4902230;29;20466;-86
2022/12/22 14:31:55;;;;;;;13.00;10.07;;;14.00;70.80;;;;;;4881997;29;20451;-87
2022/12/22 14:34:27;;;;;;;7.80;7.10;;;13.90;71.00;;;;;;4921535;29;20481;-85
2022/12/22 14:36:54;;;;;;;6.33;5.73;;;14.10;70.90;;;;;;4892712;29;20455;-85
2022/12/22 14:39:23;;;;;;;4.97;4.57;;;14.20;70.40;;;;;;4904925;29;20463;-86
2022/12/22 14:41:53;;;;;;;6.27;5.00;;;14.30;69.80;;;;;;4917934;29;20460;-83
2022/12/22 14:44:23;;;;;;;6.23;3.60;;;14.30;69.40;;;;;;4882719;29;20793;-86
2022/12/22 14:47:13;;;;;;;3.07;2.87;;;14.20;69.70;;;;;;4883932;29;20444;-88
2022/12/22 14:49:46;;;;;;;2.83;2.63;;;13.90;70.30;;;;;;4915829;29;20546;-85
2022/12/22 14:52:20;;;;;;;8.33;5.97;;;13.90;70.70;;;;;;4872677;29;20456;-85
2022/12/22 14:54:47;;;;;;;12.87;6.57;;;14.00;70.20;;;;;;4895528;29;20479;-84
2022/12/22 14:57:19;;;;;;;34.63;16.40;;;14.10;70.00;;;;;;4896792;29;20945;-85
2022/12/22 15:00:00;;;;;;;2.87;2.67;;;14.20;69.60;;;;;;4938173;29;20455;-85
2022/12/22 15:02:30;;;;;;;4.60;2.63;;;14.00;70.10;;;;;;4923320;29;20447;-87
2022/12/22 15:05:09;;;;;;;3.40;3.03;;;14.00;70.40;;;;;;4931671;28;20693;-86
2022/12/22 15:07:45;;;;;;;8.30;6.27;;;14.10;70.00;;;;;;4918045;29;20448;-86
2022/12/22 15:10:12;;;;;;;9.60;6.13;;;14.00;69.80;;;;;;4908241;29;20451;-86
2022/12/22 15:12:39;;;;;;;28.00;16.20;;;14.20;69.40;;;;;;4918550;29;20470;-85
2022/12/22 15:15:18;;;;;;;24.07;15.20;;;14.20;69.10;;;;;;4901487;29;20479;-88
2022/12/22 15:17:47;;;;;;;40.60;26.53;;;14.20;68.80;;;;;;4886119;29;20536;-87
2022/12/22 15:20:18;;;;;;;36.40;22.30;;;14.10;68.60;;;;;;4888307;29;20892;-83
2022/12/22 15:22:45;;;;;;;18.63;14.10;;;14.10;68.80;;;;;;4899085;29;20458;-85
2022/12/22 15:25:14;;;;;;;4.00;3.63;;;14.20;68.60;;;;;;4878092;29;20484;-84
2022/12/22 15:27:41;;;;;;;19.30;17.70;;;14.10;68.20;;;;;;4921540;29;20440;-85
2022/12/22 15:30:11;;;;;;;4.30;3.80;;;14.10;68.10;;;;;;4933399;29;20482;-85
2022/12/22 15:32:40;;;;;;;7.80;6.70;;;14.00;68.20;;;;;;4912639;29;20538;-86
2022/12/22 15:35:16;;;;;;;4.97;4.57;;;13.80;67.30;;;;;;4895554;29;20551;-86
2022/12/22 15:37:43;;;;;;;4.80;4.07;;;13.80;67.40;;;;;;4906495;29;20979;-85
2022/12/22 15:40:18;;;;;;;26.87;17.10;;;13.60;67.60;;;;;;4898191;29;20979;-84
2022/12/22 15:42:45;;;;;;;3.73;3.47;;;13.60;67.60;;;;;;4935805;28;20559;-84
2022/12/22 15:45:14;;;;;;;12.37;8.90;;;13.60;67.80;;;;;;4889079;29;20996;-85
2022/12/22 15:47:44;;;;;;;5.67;5.10;;;13.60;67.60;;;;;;4903773;29;20494;-85
2022/12/22 15:50:17;;;;;;;15.30;11.50;;;13.70;67.30;;;;;;4936964;28;20467;-86
2022/12/22 15:52:48;;;;;;;8.27;7.47;;;13.80;67.30;;;;;;4892128;29;20962;-84
2022/12/22 15:55:16;;;;;;;19.83;14.33;;;14.00;67.10;;;;;;4934157;28;20891;-82
2022/12/22 15:57:44;;;;;;;11.77;6.43;;;14.00;66.60;;;;;;4907848;29;20463;-85
2022/12/22 16:00:17;;;;;;;15.90;10.60;;;14.00;65.70;;;;;;4904770;29;20464;-84
2022/12/22 16:02:44;;;;;;;16.20;10.70;;;14.00;65.60;;;;;;4904684;29;20507;-83
2022/12/22 16:05:12;;;;;;;14.50;11.40;;;14.10;65.80;;;;;;4927113;29;20966;-84
2022/12/22 16:07:40;;;;;;;8.50;7.13;;;14.20;65.30;;;;;;4923266;29;20462;-85
2022/12/22 16:10:18;;;;;;;14.50;9.47;;;14.30;64.60;;;;;;4899827;29;20451;-85
2022/12/22 16:12:52;;;;;;;20.87;15.07;;;14.10;65.10;;;;;;4934162;29;20527;-84
2022/12/22 16:15:21;;;;;;;5.73;5.23;;;14.00;65.00;;;;;;4886543;29;20475;-85
2022/12/22 16:17:50;;;;;;;12.50;9.50;;;14.00;64.90;;;;;;4906458;29;21054;-85
2022/12/22 16:20:19;;;;;;;12.93;7.70;;;14.00;64.70;;;;;;4885234;29;20503;-84
2022/12/22 16:22:48;;;;;;;7.07;5.77;;;14.00;65.40;;;;;;4912066;29;20474;-82
2022/12/22 16:25:18;;;;;;;5.07;4.47;;;14.00;64.90;;;;;;4902223;29;20511;-87
2022/12/22 16:27:48;;;;;;;8.80;3.67;;;13.90;65.10;;;;;;4908881;29;20444;-89
2022/12/22 16:30:19;;;;;;;2.60;2.40;;;14.00;64.90;;;;;;4907998;29;20444;-85
2022/12/22 16:32:48;;;;;;;4.00;3.60;;;13.90;64.50;;;;;;4907946;29;20463;-83
2022/12/22 16:35:18;;;;;;;2.17;1.97;;;13.70;64.70;;;;;;4891628;29;20491;-85
2022/12/22 16:37:47;;;;;;;2.30;2.20;;;13.50;65.30;;;;;;4899628;29;20440;-85
2022/12/22 16:40:15;;;;;;;1.83;1.50;;;13.30;65.90;;;;;;4891281;29;20455;-83
2022/12/22 16:42:49;;;;;;;4.60;3.30;;;13.30;66.30;;;;;;4907335;29;20460;-85
2022/12/22 16:45:19;;;;;;;3.27;2.10;;;13.50;66.10;;;;;;4903332;29;20485;-88
2022/12/22 16:47:51;;;;;;;1.67;1.53;;;13.50;65.60;;;;;;4892726;29;20442;-84